Station Historical Data
Daily Summary for September 14, 2017 Units:  English    Metric   Both
« Previous Day
Next Day »
Daily Weekly Monthly Yearly Custom
  High: Low: Average:
Temperature: 60.4 °F 50 °F 56.3 °F
Dew Point: 59 °F 48.4 °F 54.9 °F
Humidity: 100 % 83 % 95 %
Wind Speed: 6.9 mph 0 mph 1.5 mph
Wind Gust: 8.5 mph - -
Wind:- - South
Pressure: 29.9 in -100 in -
Precipitation: 0 in    
Historical Graphs
 
 
Tabular Data for September 14, 2017
Time Temperature Dew Point Pressure Wind Wind Speed Wind Gust Humidity Rainfall Rate (Hourly) solar Conditions
00:02 59.9 °F 59 °F 29.8 in Calm   2.9 mph 97 % 0 in meteobridge W/m2
00:08 59.9 °F 59 °F 29.8 in SSW 2.5 mph 2.5 mph 97 % 0 in meteobridge W/m2
00:13 59.9 °F 58.8 °F 29.8 in SSE 2.5 mph 2.9 mph 96 % 0 in meteobridge W/m2
00:23 59.7 °F 58.6 °F 29.8 in SSW 1.1 mph 1.6 mph 96 % 0 in meteobridge W/m2
00:30 59.7 °F 58.8 °F 29.8 in SSW 3.6 mph 3.6 mph 97 % 0 in meteobridge W/m2
00:36 59.4 °F 58.5 °F 29.8 in SSE 1.6 mph 1.6 mph 97 % 0 in meteobridge W/m2
00:43 59.2 °F 58.6 °F 29.7 in Calm   1.3 mph 98 % 0 in meteobridge W/m2
00:49 59.2 °F 58.6 °F 29.7 in SSW 2.5 mph 2.5 mph 98 % 0 in meteobridge W/m2
00:55 59 °F 58.5 °F 29.8 in Calm   2.5 mph 98 % 0 in meteobridge W/m2
01:02 59 °F 58.6 °F 29.8 in SSE 0.9 mph 4.7 mph 99 % 0 in meteobridge W/m2
01:09 59 °F 58.5 °F 29.8 in Calm     98 % 0 in meteobridge W/m2
01:15 58.8 °F 58.3 °F 29.8 in ESE 2.9 mph 2.9 mph 98 % 0 in meteobridge W/m2
01:21 58.8 °F 58.3 °F 29.8 in Calm     98 % 0 in meteobridge W/m2
01:27 58.8 °F 58.3 °F 29.8 in Calm   2.9 mph 98 % 0 in meteobridge W/m2
01:34 58.8 °F 58.3 °F 29.8 in SSW 3.6 mph 3.6 mph 98 % 0 in meteobridge W/m2
01:40 58.6 °F 57.7 °F 29.8 in ESE 1.3 mph 3.1 mph 97 % 0 in meteobridge W/m2
01:47 58.6 °F 57.7 °F 29.8 in ESE 0.9 mph 0.9 mph 97 % 0 in meteobridge W/m2
01:53 58.6 °F 57.7 °F 29.8 in Calm     97 % 0 in meteobridge W/m2
02:00 58.5 °F 57.6 °F 29.8 in Calm     97 % 0 in meteobridge W/m2
02:06 58.5 °F 57.6 °F 29.8 in Calm   2.5 mph 97 % 0 in meteobridge W/m2
02:13 58.5 °F 57.6 °F 29.7 in NNE 0.9 mph 2.2 mph 97 % 0 in meteobridge W/m2
02:19 58.3 °F 57.4 °F 29.7 in SSW 2.5 mph 2.5 mph 97 % 0 in meteobridge W/m2
02:26 58.5 °F 57.6 °F 29.7 in Calm     97 % 0 in meteobridge W/m2
02:32 58.5 °F 57.6 °F 29.7 in Calm     97 % 0 in meteobridge W/m2
02:39 58.5 °F 57.9 °F 29.7 in SSE 1.6 mph 1.6 mph 98 % 0 in meteobridge W/m2
02:45 58.3 °F 57.7 °F 29.7 in Calm   0.9 mph 98 % 0 in meteobridge W/m2
02:51 58.1 °F 57.6 °F 29.7 in Calm     98 % 0 in meteobridge W/m2
02:56 58.1 °F 57.7 °F 29.7 in Calm     99 % 0 in meteobridge W/m2
03:03 57.9 °F 57.6 °F 29.7 in Calm     99 % 0 in meteobridge W/m2
03:09 57.9 °F 57.6 °F 29.7 in Calm     99 % 0 in meteobridge W/m2
03:15 57.9 °F 57.6 °F 29.7 in Calm     99 % 0 in meteobridge W/m2
03:22 57.9 °F 57.6 °F 29.7 in Calm     99 % 0 in meteobridge W/m2
03:28 57.9 °F 57.6 °F 29.7 in Calm     99 % 0 in meteobridge W/m2
03:34 57.9 °F 57.6 °F 29.7 in Calm     99 % 0 in meteobridge W/m2
03:40 57.7 °F 57.4 °F 29.7 in Calm     99 % 0 in meteobridge W/m2
03:47 57.7 °F 57.4 °F 29.7 in Calm     99 % 0 in meteobridge W/m2
03:52 57.4 °F 57.4 °F 29.7 in Calm     100 % 0 in meteobridge W/m2
03:58 57.2 °F 57.2 °F 29.7 in Calm     100 % 0 in meteobridge W/m2
04:04 57 °F 57 °F 29.7 in Calm     100 % 0 in meteobridge W/m2
04:11 56.7 °F 56.7 °F 29.7 in Calm   -998.7 mph 100 % 0 in meteobridge W/m2
04:17 56.3 °F 56.3 °F 29.7 in Calm     100 % 0 in meteobridge W/m2
04:23 56.3 °F 56.3 °F 29.7 in Calm     100 % 0 in meteobridge W/m2
04:30 56.3 °F 56.3 °F 29.7 in Calm     100 % 0 in meteobridge W/m2
04:36 56.3 °F 56.3 °F 29.7 in Calm     100 % 0 in meteobridge W/m2
04:43 56.3 °F 56.3 °F 29.7 in Calm     100 % 0 in meteobridge W/m2
04:49 56.3 °F 56.3 °F 29.7 in Calm     100 % 0 in meteobridge W/m2
04:55 56.8 °F 56.8 °F 29.7 in Calm     100 % 0 in meteobridge W/m2
05:02 57.2 °F 57.2 °F 29.7 in ENE 0.9 mph 0.9 mph 100 % 0 in meteobridge W/m2
05:08 57.2 °F 57.2 °F 29.7 in Calm     100 % 0 in meteobridge W/m2
05:13 57.4 °F 57.4 °F 29.7 in Calm     100 % 0 in meteobridge W/m2
05:22 57.6 °F 57.6 °F 29.7 in Calm     100 % 0 in meteobridge W/m2
05:26 57.6 °F 57.6 °F 29.7 in Calm     100 % 0 in meteobridge W/m2
05:32 57.4 °F 57.4 °F 29.7 in Calm     100 % 0 in meteobridge W/m2
05:38 57.6 °F 57.6 °F 29.7 in Calm     100 % 0 in meteobridge W/m2
05:45 57.6 °F 57.6 °F 29.7 in Calm     100 % 0 in meteobridge W/m2
05:47 57.6 °F 57.6 °F 29.7 in Calm     100 % 0 in meteobridge W/m2
05:53 57.6 °F 57.6 °F 29.7 in Calm     100 % 0 in meteobridge W/m2
06:00 57.6 °F 57.6 °F 29.7 in Calm     100 % 0 in meteobridge W/m2
06:06 57.6 °F 57.6 °F 29.7 in SE 3.1 mph -998.7 mph 100 % 0 in meteobridge W/m2
06:13 57.6 °F 57.6 °F 29.7 in Calm   2.7 mph 100 % 0 in meteobridge W/m2
06:19 57.6 °F 57.6 °F 29.7 in Calm     100 % 0 in meteobridge W/m2
06:25 57.7 °F 57.7 °F 29.7 in Calm     100 % 0 in meteobridge W/m2
06:32 57.6 °F 57.6 °F 29.7 in Calm     100 % 0 in meteobridge W/m2
06:38 57.6 °F 57.6 °F 29.7 in Calm   0.9 mph 100 % 0 in meteobridge W/m2
06:45 57.6 °F 57.6 °F 29.7 in SSE 0.9 mph 0.9 mph 100 % 0 in meteobridge W/m2
06:51 57.6 °F 57.6 °F 29.7 in Calm     100 % 0 in meteobridge W/m2
06:58 57.6 °F 57.6 °F 29.7 in Calm     100 % 0 in meteobridge W/m2
07:04 57.6 °F 57.6 °F 29.7 in Calm     100 % 0 in meteobridge W/m2
07:11 57.6 °F 57.6 °F 29.7 in Calm     100 % 0 in meteobridge W/m2
07:17 57.6 °F 57.6 °F 29.7 in Calm     100 % 0 in meteobridge W/m2
07:23 57.7 °F 57.7 °F 29.7 in Calm   -998.7 mph 100 % 0 in meteobridge W/m2
07:30 57.7 °F 57.7 °F 29.7 in WSW 2.7 mph 2.7 mph 100 % 0 in meteobridge W/m2
07:36 57.7 °F 57.7 °F 29.7 in Calm   2.2 mph 100 % 0 in meteobridge W/m2
07:42 57.9 °F 57.9 °F 29.7 in Calm     100 % 0 in meteobridge W/m2
07:49 57.9 °F 57.9 °F 29.7 in Calm     100 % 0 in meteobridge W/m2
07:56 58.1 °F 58.1 °F 29.7 in Calm     100 % 0 in meteobridge W/m2
08:02 58.1 °F 58.1 °F 29.7 in Calm     100 % 0 in meteobridge W/m2
08:08 58.1 °F 58.1 °F 29.7 in Calm   -998.7 mph 100 % 0 in meteobridge W/m2
08:14 58.1 °F 58.1 °F 29.7 in Calm     100 % 0 in meteobridge W/m2
08:20 57.9 °F 57.9 °F 29.7 in Calm     100 % 0 in meteobridge W/m2
08:26 57.9 °F 57.9 °F 29.7 in Calm   -998.7 mph 100 % 0 in meteobridge W/m2
08:32 58.1 °F 58.1 °F 29.7 in SW 1.1 mph 1.1 mph 100 % 0 in meteobridge W/m2
08:37 57.9 °F 57.9 °F 29.7 in Calm     100 % 0 in meteobridge W/m2
08:38 57.9 °F 57.9 °F 29.7 in Calm     100 % 0 in meteobridge W/m2
08:43 57.9 °F 57.9 °F 29.7 in SSW 0.9 mph 0.9 mph 100 % 0 in meteobridge W/m2
08:48 57.9 °F 57.9 °F 29.7 in SSE 2.2 mph 3.1 mph 100 % 0 in meteobridge W/m2
08:53 57.9 °F 57.9 °F 29.7 in Calm     100 % 0 in meteobridge W/m2
08:56 58.1 °F 58.1 °F 29.7 in Calm     100 % 0 in meteobridge W/m2
08:59 57.9 °F 57.9 °F 29.7 in Calm   2.5 mph 100 % 0 in meteobridge W/m2
09:09 57.6 °F 57.6 °F 29.7 in SSE 0.9 mph 1.3 mph 100 % 0 in meteobridge W/m2
09:15 57.4 °F 57.4 °F 29.7 in SSE 4.7 mph 4.7 mph 100 % 0 in meteobridge W/m2
09:21 57.6 °F 57.2 °F 29.7 in Calm     99 % 0 in meteobridge W/m2
09:27 57.6 °F 57.2 °F 29.7 in SSE 1.3 mph 1.3 mph 99 % 0 in meteobridge W/m2
09:34 57.6 °F 57.2 °F 29.7 in SSW 1.1 mph 1.1 mph 99 % 0 in meteobridge W/m2
09:41 57.6 °F 57.2 °F 29.7 in SSE 2 mph 2 mph 99 % 0 in meteobridge W/m2
09:47 57.6 °F 57.2 °F 29.7 in Calm     99 % 0 in meteobridge W/m2
09:52 57.7 °F 57.4 °F 29.7 in ESE 1.6 mph 1.6 mph 99 % 0 in meteobridge W/m2
09:59 57.7 °F 57.4 °F 29.7 in SW 1.3 mph 1.3 mph 99 % 0 in meteobridge W/m2
10:05 57.7 °F 57.4 °F 29.7 in Calm   0.9 mph 99 % 0 in meteobridge W/m2
10:11 57.9 °F 57.4 °F 29.7 in Calm     98 % 0 in meteobridge W/m2
10:17 57.7 °F 56.8 °F 29.7 in South 5.8 mph 5.8 mph 97 % 0 in meteobridge W/m2
10:23 57.7 °F 56.8 °F 29.7 in Calm     97 % 0 in meteobridge W/m2
10:29 57.7 °F 56.7 °F 29.7 in Calm     96 % 0 in meteobridge W/m2
10:35 57.7 °F 56.7 °F 29.7 in Calm     96 % 0 in meteobridge W/m2
10:41 57.6 °F 56.5 °F 29.7 in SE 1.1 mph 1.1 mph 96 % 0 in meteobridge W/m2
10:47 57.4 °F 55.9 °F 29.7 in ESE 2.2 mph 2.2 mph 95 % 0 in meteobridge W/m2
10:53 57.4 °F 55.9 °F 29.7 in SSE 4 mph 4 mph 95 % 0 in meteobridge W/m2
10:59 57.4 °F 55.9 °F 29.7 in SSE 3.6 mph 3.6 mph 95 % 0 in meteobridge W/m2
11:05 57.4 °F 55.9 °F 29.7 in Calm   1.6 mph 95 % 0 in meteobridge W/m2
11:13 57.7 °F 55.8 °F 29.7 in Calm     93 % 0 in meteobridge W/m2
11:19 57.7 °F 55.8 °F 29.7 in SSW 6.5 mph 6.5 mph 93 % 0 in meteobridge W/m2
11:25 58.1 °F 55.8 °F 29.7 in South 3.6 mph 3.6 mph 92 % 0 in meteobridge W/m2
11:31 58.1 °F 55.4 °F 29.7 in ESE 4.7 mph 4.7 mph 91 % 0 in meteobridge W/m2
11:37 58.1 °F 55.4 °F 29.7 in South 5.4 mph 5.4 mph 91 % 0 in meteobridge W/m2
11:43 58.1 °F 55.4 °F 29.8 in SSW 4.7 mph 4.7 mph 91 % 0 in meteobridge W/m2
11:49 58.8 °F 56.1 °F 29.8 in NNW 3.1 mph 3.1 mph 91 % 0 in meteobridge W/m2
11:55 58.8 °F 55.9 °F 29.8 in SSE 3.6 mph 3.6 mph 90 % 0 in meteobridge W/m2
12:01 59.4 °F 56.1 °F 29.8 in Calm     89 % 0 in meteobridge W/m2
12:07 59.9 °F 56.7 °F 29.8 in SSW 2.7 mph 3.6 mph 89 % 0 in meteobridge W/m2
12:13 60.4 °F 57.2 °F 29.8 in SSE 1.3 mph 1.3 mph 89 % 0 in meteobridge W/m2
12:19 60.4 °F 56.5 °F 29.8 in South 2.5 mph 2.5 mph 87 % 0 in meteobridge W/m2
12:25 59.4 °F 55.2 °F 29.8 in SSE 2 mph 4 mph 86 % 0 in meteobridge W/m2
12:31 59.5 °F 55 °F 29.8 in South 3.4 mph 3.4 mph 85 % 0 in meteobridge W/m2
12:37 59.4 °F 54.9 °F 29.8 in South 2 mph 2 mph 85 % 0 in meteobridge W/m2
12:43 59.2 °F 54.3 °F 29.8 in WNW 1.6 mph 1.6 mph 84 % 0 in meteobridge W/m2
12:55 59.4 °F 54.5 °F 29.7 in SSE 2.2 mph 2.2 mph 84 % 0 in meteobridge W/m2
13:01 59.4 °F 54.5 °F 29.7 in Calm     84 % 0 in meteobridge W/m2
13:07 59.4 °F 54.5 °F 29.7 in South 3.4 mph 3.4 mph 84 % 0 in meteobridge W/m2
13:19 59.5 °F 54.3 °F 29.7 in South 2.7 mph 2.7 mph 83 % 0 in meteobridge W/m2
13:25 59.7 °F 54.5 °F 29.7 in WNW 2.2 mph 2.2 mph 83 % 0 in meteobridge W/m2
13:31 60.1 °F 54.9 °F 29.7 in WSW 3.6 mph 3.6 mph 83 % 0 in meteobridge W/m2
13:37 59.7 °F 54.5 °F 29.7 in West 1.6 mph 1.6 mph 83 % 0 in meteobridge W/m2
13:43 59.7 °F 54.9 °F 29.7 in SSW 2 mph 2 mph 84 % 0 in meteobridge W/m2
13:49 59.4 °F 54.5 °F 29.7 in Calm     84 % 0 in meteobridge W/m2
13:55 59.2 °F 54.3 °F 29.7 in SE 5.4 mph 5.4 mph 84 % 0 in meteobridge W/m2
14:01 58.8 °F 54 °F 29.7 in SSW 3.1 mph 4.3 mph 84 % 0 in meteobridge W/m2
14:07 58.8 °F 54 °F 29.7 in SSW 2.2 mph 3.4 mph 84 % 0 in meteobridge W/m2
14:13 58.6 °F 54.1 °F 29.8 in WNW 3.1 mph 3.1 mph 85 % 0 in meteobridge W/m2
14:19 58.5 °F 54.3 °F 29.8 in South 2.5 mph 2.5 mph 86 % 0 in meteobridge W/m2
14:25 58.5 °F 54.3 °F 29.7 in SSE 1.3 mph 1.3 mph 86 % 0 in meteobridge W/m2
14:31 58.1 °F 54.3 °F 29.7 in South 1.3 mph 1.3 mph 87 % 0 in meteobridge W/m2
14:37 57.9 °F 54.7 °F 29.7 in SSE 2.9 mph 2.9 mph 89 % 0 in meteobridge W/m2
14:43 57.7 °F 54.5 °F 29.7 in SSW 1.6 mph 1.6 mph 89 % 0 in meteobridge W/m2
14:49 57.7 °F 54.5 °F 29.7 in SSW 2 mph 2 mph 89 % 0 in meteobridge W/m2
14:55 57.2 °F 54.7 °F 29.8 in SSE 1.1 mph 1.1 mph 91 % 0 in meteobridge W/m2
15:01 57 °F 54.5 °F 29.8 in South 4 mph 4 mph 91 % 0 in meteobridge W/m2
15:09 56.7 °F 54.1 °F -100 in South 6.9 mph 6.9 mph 91 % 0 in meteobridge W/m2
15:16 55.9 °F 53.4 °F 29.8 in SSE 2.5 mph 2.5 mph 91 % 0 in meteobridge W/m2
15:22 55.6 °F 53.2 °F 29.8 in SSW 1.6 mph 1.6 mph 92 % 0 in meteobridge W/m2
15:28 55.2 °F 53.2 °F 29.8 in Calm   -998.7 mph 93 % 0 in meteobridge W/m2
15:34 55.2 °F 53.6 °F 29.8 in SSE 4.3 mph 4.3 mph 94 % 0 in meteobridge W/m2
15:40 55 °F 53.4 °F 29.8 in West 4.3 mph 4.3 mph 94 % 0 in meteobridge W/m2
15:46 55 °F 53.6 °F 29.8 in SSW 0.9 mph 0.9 mph 95 % 0 in meteobridge W/m2
15:52 55.2 °F 53.8 °F 29.8 in SSW 1.6 mph 1.6 mph 95 % 0 in meteobridge W/m2
15:58 55.2 °F 53.8 °F 29.8 in SSE 2.9 mph 2.9 mph 95 % 0 in meteobridge W/m2
16:04 55.4 °F 54 °F 29.8 in WSW 3.8 mph 8.5 mph 95 % 0 in meteobridge W/m2
16:10 55.4 °F 54 °F 29.8 in SSW 3.6 mph 5.6 mph 95 % 0 in meteobridge W/m2
16:16 55 °F 53.1 °F 29.8 in NNE 3.6 mph 3.6 mph 93 % 0 in meteobridge W/m2
16:22 54.9 °F 52.9 °F 29.8 in SSW 3.4 mph 3.4 mph 93 % 0 in meteobridge W/m2
16:28 54.7 °F 52.7 °F 29.8 in SSW 1.1 mph 1.1 mph 93 % 0 in meteobridge W/m2
16:34 54.7 °F 52.7 °F 29.8 in SSW 1.1 mph 1.1 mph 93 % 0 in meteobridge W/m2
16:40 54.3 °F 52.7 °F 29.8 in SSE 3.6 mph 3.6 mph 94 % 0 in meteobridge W/m2
16:46 54.1 °F 52.5 °F 29.8 in NNW 4.5 mph 4.5 mph 94 % 0 in meteobridge W/m2
16:52 54 °F 52.3 °F 29.8 in Calm     94 % 0 in meteobridge W/m2
16:58 54 °F 52.3 °F 29.8 in SSW 2.5 mph 2.5 mph 94 % 0 in meteobridge W/m2
17:04 54 °F 52.3 °F 29.8 in South 3.1 mph 3.1 mph 94 % 0 in meteobridge W/m2
17:10 53.8 °F 52.2 °F 29.8 in SSW 1.6 mph 1.6 mph 94 % 0 in meteobridge W/m2
17:16 53.8 °F 52.2 °F 29.8 in SSE 1.3 mph 1.3 mph 94 % 0 in meteobridge W/m2
17:23 53.6 °F 52.2 °F 29.8 in SSE 1.6 mph 1.6 mph 95 % 0 in meteobridge W/m2
17:29 53.6 °F 52.2 °F 29.8 in SW 3.8 mph 5.8 mph 95 % 0 in meteobridge W/m2
17:35 53.6 °F 52 °F 29.8 in SSE 2.7 mph 3.6 mph 94 % 0 in meteobridge W/m2
17:41 53.4 °F 51.8 °F 29.8 in SW 3.8 mph 3.8 mph 94 % 0 in meteobridge W/m2
17:47 53.4 °F 51.4 °F 29.8 in SSW 2.7 mph 2.7 mph 93 % 0 in meteobridge W/m2
17:53 53.4 °F 51.4 °F 29.8 in Calm     93 % 0 in meteobridge W/m2
17:59 53.4 °F 51.8 °F 29.8 in SSE 2 mph 2 mph 94 % 0 in meteobridge W/m2
18:05 53.4 °F 51.8 °F 29.8 in West 4 mph 4 mph 94 % 0 in meteobridge W/m2
18:11 53.2 °F 51.3 °F 29.8 in WNW 1.6 mph 2.9 mph 93 % 0 in meteobridge W/m2
18:17 53.2 °F 51.3 °F 29.8 in SSE 2.9 mph 3.8 mph 93 % 0 in meteobridge W/m2
18:23 53.2 °F 51.3 °F 29.8 in SSE 3.8 mph 3.8 mph 93 % 0 in meteobridge W/m2
18:29 53.2 °F 51.3 °F 29.8 in South 3.6 mph 3.6 mph 93 % 0 in meteobridge W/m2
18:35 53.2 °F 51.3 °F 29.8 in SSW 1.3 mph 3.1 mph 93 % 0 in meteobridge W/m2
18:47 53.1 °F 51.1 °F 29.8 in South 5.4 mph 5.4 mph 93 % 0 in meteobridge W/m2
18:53 52.9 °F 50.9 °F 29.8 in Calm     93 % 0 in meteobridge W/m2
18:59 52.9 °F 50.9 °F 29.8 in Calm   -998.7 mph 93 % 0 in meteobridge W/m2
20:23 52.3 °F 50 °F 29.8 in SSW 2 mph 2 mph 92 % 0 in meteobridge W/m2
20:29 52.2 °F 49.8 °F 29.8 in SSW 1.1 mph 1.1 mph 92 % 0 in meteobridge W/m2
20:35 52.3 °F 50 °F 29.8 in SSW 1.3 mph 1.3 mph 92 % 0 in meteobridge W/m2
20:41 52.3 °F 50 °F 29.8 in SSE 6 mph 6 mph 92 % 0 in meteobridge W/m2
20:47 52.2 °F 49.8 °F 29.8 in SSW 2.9 mph 2.9 mph 92 % 0 in meteobridge W/m2
20:53 52 °F 49.6 °F 29.8 in SW 6 mph 6 mph 92 % 0 in meteobridge W/m2
20:59 52 °F 49.6 °F 29.8 in Calm   4.7 mph 92 % 0 in meteobridge W/m2
21:06 52 °F 49.6 °F 29.8 in Calm   -998.7 mph 92 % 0 in meteobridge W/m2
21:13 52 °F 49.6 °F 29.8 in SSE 1.1 mph 1.1 mph 92 % 0 in meteobridge W/m2
21:19 51.4 °F 49.5 °F 29.8 in SSW 2.9 mph 2.9 mph 93 % 0 in meteobridge W/m2
21:25 51.4 °F 49.5 °F 29.8 in SSW 4.7 mph 4.7 mph 93 % 0 in meteobridge W/m2
21:31 51.1 °F 49.1 °F 29.8 in South 1.3 mph 1.3 mph 93 % 0 in meteobridge W/m2
21:37 51.1 °F 49.1 °F 29.8 in SW 1.1 mph 1.1 mph 93 % 0 in meteobridge W/m2
21:43 50.9 °F 48.9 °F 29.8 in SSE 1.6 mph 1.6 mph 93 % 0 in meteobridge W/m2
21:49 50.7 °F 48.7 °F 29.8 in Calm   1.6 mph 93 % 0 in meteobridge W/m2
21:55 50.5 °F 48.9 °F 29.9 in SSW 3.6 mph 3.6 mph 94 % 0 in meteobridge W/m2
22:01 50.5 °F 48.9 °F 29.9 in NNE 0.9 mph 0.9 mph 94 % 0 in meteobridge W/m2
22:07 50.5 °F 48.9 °F 29.9 in SE 3.6 mph 3.6 mph 94 % 0 in meteobridge W/m2
22:13 50.5 °F 48.9 °F 29.9 in Calm   1.1 mph 94 % 0 in meteobridge W/m2
22:19 50.5 °F 48.9 °F 29.9 in SSE 2 mph 2 mph 94 % 0 in meteobridge W/m2
22:25 50.4 °F 48.7 °F 29.9 in SSW 2.2 mph 2.2 mph 94 % 0 in meteobridge W/m2
22:31 50.4 °F 48.7 °F 29.9 in SSE 3.4 mph 3.4 mph 94 % 0 in meteobridge W/m2
22:36 50.4 °F 48.9 °F 29.9 in Calm   3.1 mph 95 % 0 in meteobridge W/m2
22:42 50.4 °F 48.9 °F 29.9 in Calm   0.9 mph 95 % 0 in meteobridge W/m2
22:49 50.2 °F 48.7 °F 29.9 in Calm     95 % 0 in meteobridge W/m2
22:55 50.2 °F 48.7 °F 29.9 in NNW 1.1 mph 4 mph 95 % 0 in meteobridge W/m2
23:01 50 °F 48.6 °F 29.9 in SE 2.7 mph 2.7 mph 95 % 0 in meteobridge W/m2
23:07 50 °F 48.6 °F 29.9 in SSE 3.1 mph 3.1 mph 95 % 0 in meteobridge W/m2
23:13 50 °F 48.6 °F 29.9 in SSE 3.1 mph 3.1 mph 95 % 0 in meteobridge W/m2
23:32 50.2 °F 48.6 °F 29.9 in SW 2.2 mph 2.2 mph 94 % 0 in meteobridge W/m2
23:38 50.2 °F 48.6 °F 29.9 in Calm     94 % 0 in meteobridge W/m2
23:45 50.2 °F 48.6 °F 29.9 in SSW 2.5 mph 2.5 mph 94 % 0 in meteobridge W/m2
23:51 50 °F 48.4 °F 29.9 in SSW 1.6 mph 2.9 mph 94 % 0 in meteobridge W/m2
23:56 50 °F 48.4 °F 29.9 in SSE 3.6 mph 3.6 mph 94 % 0 in meteobridge W/m2
Juneau County Weather
Compliments of Weather Underground - 2.25 mb